• Join FlightAware (Why Join?)
  • Login
  • US Flag 
08:37AM EDT


 

Airport Tracker/Info


-or-


 

Live Flight TrackerFlight Track Log ✈ AAL1884 ✈ 24-Apr-2012 ✈ KXNA - KDFW

Flight Track Log - Related Links

Times and Time Zones

All times are in EDT time to prevent confusion due to time zone crossing. See the AAL1884 flight status page for this flight to view local times or setup timezone preferences in your user account.

Time Position Orientation Groundspeed Altitude Reporting Facility
EDT Latitude Longitude Course Direction KTS MPH feet Rate Location/Type
02:17PM 36.2596 -94.3000 190° South  Level FlightAware Approximate
02:18PM 36.1665 -94.3000 200° South  Level FlightAware Approximate
02:19PM 36.0774 -94.2983 265° West  Level FlightAware Approximate
02:20PM 36.0742 -94.3425 195° South 280 322 10,700  Level Memphis Center
02:21PM 35.9772 -94.3736 195° South 309 356 12,800 2,700 Climbing Memphis Center
02:22PM 35.8678 -94.4094 194° South 362 417 16,100 3,180 Climbing Memphis Center
02:23PM 35.7558 -94.4447 195° South 402 463 19,200 2,760 Climbing Memphis Center
02:24PM 35.6358 -94.4850 195° South 425 489 21,700 2,400 Climbing Memphis Center
02:25PM 35.5114 -94.5247 194° South 443 510 24,100 2,100 Climbing Memphis Center
02:26PM 35.3850 -94.5642 193° South 465 535 26,000 900 Climbing Memphis Center
02:27PM 35.2586 -94.6011 196° South 465 535 26,000  Level Memphis Center
02:28PM 35.0922 -94.6581 204° Southwest 504 580 26,000  Level Fort Worth Center
02:29PM 34.9750 -94.7225 222° Southwest 483 556 26,000  Level Fort Worth Center
02:30PM 34.8811 -94.8267 221° Southwest 464 534 26,000  Level Fort Worth Center
02:31PM 34.7953 -94.9178 222° Southwest 464 534 26,000  Level Fort Worth Center
02:32PM 34.6994 -95.0217 221° Southwest 464 534 26,000  Level Fort Worth Center
02:33PM 34.6053 -95.1203 221° Southwest 459 528 26,000  Level Fort Worth Center
02:34PM 34.5089 -95.2236 221° Southwest 459 528 26,000  Level Fort Worth Center
02:35PM 34.4128 -95.3242 221° Southwest 459 528 26,000  Level Fort Worth Center
02:36PM 34.3161 -95.4244 222° Southwest 459 528 26,000 -180 Level Fort Worth Center
02:37PM 34.2219 -95.5272 220° Southwest 454 522 25,700 -660 Descending Fort Worth Center
02:38PM 34.1211 -95.6297 224° Southwest 460 529 24,700 -1,380 Descending Fort Worth Center
02:39PM 34.0369 -95.7267 220° Southwest 441 507 23,000 -1,860 Descending Fort Worth Center
02:40PM 33.9442 -95.8211 222° Southwest 440 506 21,000 -2,100 Descending Fort Worth Center
02:41PM 33.8578 -95.9153 218° Southwest 430 495 18,900 -2,100 Descending Fort Worth Center
02:42PM 33.7647 -96.0042 220° Southwest 430 495 16,900 -2,100 Descending Fort Worth Center
02:43PM 33.6719 -96.0981 220° Southwest 416 479 14,800 -2,040 Descending Fort Worth Center
02:44PM 33.5975 -96.1742 229° Southwest 405 466 12,900 -1,800 Descending Fort Worth Center
02:45PM 33.5578 -96.2286 223° Southwest 381 438 12,100 -1,260 Descending FAA TRACON SMA TRACON (SMA)
02:46PM 33.5044 -96.2881 223° Southwest 378 435 11,400 -900 Descending FAA TRACON SMA TRACON (SMA)
02:46PM 33.4536 -96.3453 224° Southwest 357 411 10,900 -420 Descending FAA TRACON SMA TRACON (SMA)
02:47PM 33.4100 -96.3958 225° Southwest 309 356 10,900 -480 Level FAA TRACON SMA TRACON (SMA)
02:48PM 33.3739 -96.4394 224° Southwest 302 348 10,300 -1,140 Descending FAA TRACON SMA TRACON (SMA)
02:48PM 33.3322 -96.4878 224° Southwest 299 344 9,400 -1,320 Descending FAA TRACON SMA TRACON (SMA)
02:49PM 33.2742 -96.5539 242° Southwest 285 328 8,100 -1,320 Descending FAA TRACON SMA TRACON (SMA)
02:50PM 33.2497 -96.6094 246° West 272 313 7,200 -1,440 Descending FAA TRACON SMA TRACON (SMA)
02:51PM 33.2314 -96.6592 243° Southwest 266 306 6,200 -1,500 Descending FAA TRACON SMA TRACON (SMA)
02:51PM 33.2086 -96.7119 236° Southwest 262 302 5,200 -960 Descending FAA TRACON SMA TRACON (SMA)
02:52PM 33.1842 -96.7558 236° Southwest 258 297 5,000 -180 Descending FAA TRACON SMA TRACON (SMA)
02:53PM 33.1564 -96.8050 237° Southwest 259 298 5,000 -120 Level FAA TRACON SMA TRACON (SMA)
02:53PM 33.1303 -96.8525 239° Southwest 246 283 4,900 -360 Descending FAA TRACON SMA TRACON (SMA)
02:54PM 33.1086 -96.8958 239° Southwest 217 250 4,600 -780 Descending FAA TRACON SMA TRACON (SMA)
02:55PM 33.0900 -96.9331 238° Southwest 212 244 3,900 -1,200 Descending FAA TRACON SMA TRACON (SMA)
02:55PM 33.0694 -96.9728 238° Southwest 206 237 3,000 -1,380 Descending FAA TRACON SMA TRACON (SMA)